Time;durP1;ratioP1;P1;durP2;ratioP2;P2;SDS_P1;SDS_P2;PMS_P1;PMS_P2;Temp;Humidity;BMP_temperature;BMP_pressure;BME280_temperature;BME280_humidity;BME280_pressure;Samples;Min_cycle;Max_cycle;Signal;HPM_P1;HPM_P2
2021/01/14 00:01:03;;;;;;;77.03;30.33;;;-0.80;99.90;;;;;;5249290;28;20195;-72
2021/01/14 00:03:35;;;;;;;79.47;31.10;;;-0.90;99.90;;;;;;5249745;28;20283;-73
2021/01/14 00:06:13;;;;;;;76.33;29.30;;;-0.90;99.90;;;;;;5253355;28;20196;-73
2021/01/14 00:08:45;;;;;;;74.80;27.97;;;-1.00;99.90;;;;;;5251008;28;20547;-66
2021/01/14 00:11:16;;;;;;;75.50;28.83;;;-1.10;99.90;;;;;;5230706;28;20229;-76
2021/01/14 00:13:48;;;;;;;64.33;27.90;;;-1.10;99.90;;;;;;5251867;28;20192;-74
2021/01/14 00:16:19;;;;;;;68.50;27.43;;;-1.20;99.90;;;;;;5251991;28;20207;-73
2021/01/14 00:18:51;;;;;;;67.53;28.83;;;-1.20;99.90;;;;;;5251078;28;20529;-72
2021/01/14 00:21:22;;;;;;;67.20;26.17;;;-1.20;99.90;;;;;;5250307;28;20207;-73
2021/01/14 00:23:54;;;;;;;67.20;27.17;;;-1.20;99.90;;;;;;5249284;28;20192;-72
2021/01/14 00:26:25;;;;;;;68.13;27.63;;;-1.30;99.90;;;;;;5249868;28;20693;-67
2021/01/14 00:28:57;;;;;;;79.80;27.87;;;-1.30;99.90;;;;;;5254410;28;20279;-70
2021/01/14 00:31:28;;;;;;;64.67;26.63;;;-1.30;99.90;;;;;;5247276;28;20218;-75
2021/01/14 00:33:59;;;;;;;69.17;30.57;;;-1.40;99.90;;;;;;5248101;28;20195;-75
2021/01/14 00:37:50;;;;;;;78.53;31.30;;;-1.50;99.90;;;;;;5246856;28;20194;-71
2021/01/14 00:39:28;;;;;;;69.33;27.47;;;-1.50;99.90;;;;;;5249247;28;20196;-72
2021/01/14 00:42:00;;;;;;;65.43;26.73;;;-1.60;99.90;;;;;;5249542;28;20272;-75
2021/01/14 00:44:31;;;;;;;63.20;25.17;;;-1.60;99.90;;;;;;5250320;28;20276;-75
2021/01/14 00:47:03;;;;;;;60.23;25.27;;;-1.70;99.90;;;;;;5249827;28;20197;-74
2021/01/14 00:49:34;;;;;;;55.80;22.93;;;-1.70;99.90;;;;;;5249502;28;20192;-76
2021/01/14 00:52:08;;;;;;;54.50;22.37;;;-1.70;99.90;;;;;;5249190;28;20235;-74
2021/01/14 00:54:40;;;;;;;49.47;22.10;;;-1.70;99.90;;;;;;5248660;28;20204;-71
2021/01/14 00:57:14;;;;;;;56.63;23.40;;;-1.80;99.90;;;;;;5231381;28;20191;-74
2021/01/14 00:59:45;;;;;;;55.20;22.33;;;-1.90;99.90;;;;;;5248658;28;20193;-73
2021/01/14 01:02:17;;;;;;;50.60;21.90;;;-1.90;99.90;;;;;;5248915;28;20196;-73
2021/01/14 01:04:49;;;;;;;54.30;22.20;;;-2.00;99.90;;;;;;5248573;28;20220;-71
2021/01/14 01:07:20;;;;;;;55.67;22.13;;;-2.00;99.90;;;;;;5250070;28;20188;-74
2021/01/14 01:09:51;;;;;;;52.27;23.03;;;-2.00;99.90;;;;;;5249301;28;20199;-73
2021/01/14 01:12:23;;;;;;;59.27;23.33;;;-2.00;99.90;;;;;;5251360;28;20200;-74
2021/01/14 01:14:54;;;;;;;56.07;24.33;;;-2.00;99.90;;;;;;5253405;28;20195;-73
2021/01/14 01:17:32;;;;;;;59.40;24.57;;;-2.00;99.90;;;;;;5253359;28;20196;-73
2021/01/14 01:20:05;;;;;;;57.20;23.07;;;-2.10;99.90;;;;;;5253506;28;20202;-74
2021/01/14 01:22:36;;;;;;;52.13;21.70;;;-2.10;99.90;;;;;;5254000;28;20639;-72
2021/01/14 01:25:08;;;;;;;56.70;21.87;;;-2.10;99.90;;;;;;5253709;28;20265;-73
2021/01/14 01:27:39;;;;;;;51.67;22.10;;;-2.10;99.90;;;;;;5235665;28;20258;-77
2021/01/14 01:30:11;;;;;;;57.63;23.63;;;-2.20;99.90;;;;;;5253524;28;20257;-73
2021/01/14 01:32:43;;;;;;;52.40;22.30;;;-2.20;99.90;;;;;;5236050;28;20200;-75
2021/01/14 01:35:14;;;;;;;50.53;22.50;;;-2.20;99.90;;;;;;5255019;28;20202;-77
2021/01/14 01:37:46;;;;;;;52.20;23.53;;;-2.20;99.90;;;;;;5255176;28;20222;-73
2021/01/14 01:40:17;;;;;;;50.50;23.13;;;-2.10;99.90;;;;;;5255163;28;20236;-74
2021/01/14 01:42:55;;;;;;;47.47;22.43;;;-2.20;99.90;;;;;;5255138;28;20202;-75
2021/01/14 01:45:27;;;;;;;58.80;23.60;;;-2.20;99.90;;;;;;5256019;28;20203;-77
2021/01/14 01:47:59;;;;;;;57.40;23.60;;;-2.20;99.90;;;;;;5256051;28;20210;-74
2021/01/14 01:50:31;;;;;;;55.83;24.20;;;-2.20;99.90;;;;;;5255593;28;20251;-76
2021/01/14 01:53:02;;;;;;;66.57;27.70;;;-2.20;99.90;;;;;;5255035;28;20190;-76
2021/01/14 01:55:34;;;;;;;64.53;28.37;;;-2.20;99.90;;;;;;5255634;28;20549;-75
2021/01/14 01:58:06;;;;;;;70.93;30.87;;;-2.20;99.90;;;;;;5254796;28;20209;-76
2021/01/14 02:00:39;;;;;;;76.70;31.87;;;-2.20;99.90;;;;;;5255462;28;20204;-76
2021/01/14 02:03:10;;;;;;;68.43;29.43;;;-2.30;99.90;;;;;;5252413;28;20200;-75
2021/01/14 02:05:42;;;;;;;62.20;29.47;;;-2.30;99.90;;;;;;5250129;28;20198;-75
2021/01/14 02:08:20;;;;;;;78.37;31.30;;;-2.30;99.90;;;;;;5252381;28;20195;-75
2021/01/14 02:10:56;;;;;;;72.07;30.10;;;-2.30;99.90;;;;;;5253178;28;20671;-74
2021/01/14 02:13:57;;;;;;;73.67;30.00;;;-2.30;99.90;;;;;;5251227;28;20689;-72
2021/01/14 02:16:30;;;;;;;66.90;28.17;;;-2.40;99.90;;;;;;5251232;28;20531;-76
2021/01/14 02:19:02;;;;;;;75.43;30.10;;;-2.40;99.90;;;;;;5233535;28;20190;-74
2021/01/14 02:21:37;;;;;;;66.50;28.67;;;-2.40;99.90;;;;;;5251650;28;20193;-73
2021/01/14 02:24:16;;;;;;;71.70;28.23;;;-2.30;99.90;;;;;;5250539;28;20269;-74
2021/01/14 02:26:49;;;;;;;67.37;28.97;;;-2.30;99.90;;;;;;5251277;28;20616;-74
2021/01/14 02:29:21;;;;;;;66.93;29.77;;;-2.30;99.90;;;;;;5251916;28;20198;-76
2021/01/14 02:31:52;;;;;;;67.53;28.03;;;-2.30;99.90;;;;;;5251836;28;20218;-74
2021/01/14 02:38:20;;;;;;;57.23;27.73;;;-2.40;99.90;;;;;;5255863;28;20167;-75
2021/01/14 02:40:52;;;;;;;60.83;27.83;;;-2.50;99.90;;;;;;5257132;28;20193;-75
2021/01/14 02:43:23;;;;;;;62.63;27.67;;;-2.60;99.90;;;;;;5253315;28;20199;-74
2021/01/14 02:45:55;;;;;;;57.13;26.40;;;-2.60;99.90;;;;;;5251871;28;20185;-73
2021/01/14 02:48:38;;;;;;;64.70;26.53;;;-2.70;99.90;;;;;;5251768;28;20202;-72
2021/01/14 02:55:48;;;;;;;57.33;24.30;;;-2.70;99.90;;;;;;5231392;28;20594;-73
2021/01/14 02:58:21;;;;;;;67.80;27.30;;;-2.70;99.90;;;;;;5232129;28;20225;-77
2021/01/14 03:00:52;;;;;;;66.03;28.93;;;-2.60;99.90;;;;;;5231662;28;20193;-73
2021/01/14 03:03:24;;;;;;;69.40;30.67;;;-2.60;99.90;;;;;;5230954;28;20197;-76
2021/01/14 03:09:41;;;;;;;76.50;33.17;;;-2.50;99.90;;;;;;5229693;28;20183;-74
2021/01/14 03:12:13;;;;;;;77.20;33.40;;;-2.40;99.90;;;;;;5230070;28;20228;-75
2021/01/14 03:14:45;;;;;;;82.30;35.07;;;-2.40;99.90;;;;;;5229732;28;20197;-74
2021/01/14 03:17:16;;;;;;;85.53;34.20;;;-2.30;99.90;;;;;;5230383;28;20598;-75
2021/01/14 03:19:47;;;;;;;80.00;33.73;;;-2.30;99.90;;;;;;5212053;28;20197;-73
2021/01/14 03:22:19;;;;;;;81.50;34.53;;;-2.20;99.90;;;;;;5230046;28;20195;-71
2021/01/14 03:24:50;;;;;;;81.73;35.97;;;-2.20;99.90;;;;;;5229747;28;20191;-72
2021/01/14 03:27:22;;;;;;;81.97;33.37;;;-2.20;99.90;;;;;;5229963;28;20203;-71
2021/01/14 03:29:53;;;;;;;76.77;33.43;;;-2.20;99.90;;;;;;5229838;28;20189;-74
2021/01/14 03:32:24;;;;;;;76.90;31.53;;;-2.20;99.90;;;;;;5231438;28;20229;-75
2021/01/14 03:34:56;;;;;;;79.77;33.27;;;-2.10;99.90;;;;;;5231939;28;20195;-77
2021/01/14 03:37:27;;;;;;;73.77;31.97;;;-2.10;99.90;;;;;;5230907;28;20746;-74
2021/01/14 03:39:59;;;;;;;79.30;31.27;;;-2.20;99.90;;;;;;5230644;28;20200;-73
2021/01/14 03:42:30;;;;;;;80.73;33.07;;;-2.20;99.90;;;;;;5231148;28;20190;-75
2021/01/14 03:45:03;;;;;;;77.53;31.83;;;-2.20;99.90;;;;;;5230167;28;20198;-71
2021/01/14 03:47:34;;;;;;;83.50;34.33;;;-2.20;99.90;;;;;;5229512;28;20200;-72
2021/01/14 03:50:09;;;;;;;80.23;34.40;;;-2.20;99.90;;;;;;5229696;28;20200;-74
2021/01/14 03:52:41;;;;;;;79.33;33.50;;;-2.20;99.90;;;;;;5229578;28;20218;-72
2021/01/14 03:55:12;;;;;;;72.53;31.60;;;-2.20;99.90;;;;;;5245915;28;20236;-72
2021/01/14 03:57:44;;;;;;;70.50;30.53;;;-2.20;99.90;;;;;;5249536;28;20200;-76
2021/01/14 04:00:16;;;;;;;69.93;30.77;;;-2.10;99.90;;;;;;5249039;28;20200;-74
2021/01/14 04:02:48;;;;;;;67.80;29.23;;;-2.10;99.90;;;;;;5249487;28;20563;-74
2021/01/14 04:05:19;;;;;;;70.67;30.37;;;-2.10;99.90;;;;;;5248920;28;20199;-74
2021/01/14 04:07:50;;;;;;;76.60;31.13;;;-2.10;99.90;;;;;;5248885;28;20189;-72
2021/01/14 04:10:22;;;;;;;74.70;30.47;;;-2.00;99.90;;;;;;5249145;28;20188;-74
2021/01/14 04:12:54;;;;;;;75.97;30.63;;;-2.00;99.90;;;;;;5249074;28;20205;-74
2021/01/14 04:15:25;;;;;;;75.70;29.50;;;-2.00;99.90;;;;;;5248891;28;20551;-74
2021/01/14 04:17:56;;;;;;;66.47;29.57;;;-1.90;99.90;;;;;;5249188;28;20195;-73
2021/01/14 04:20:28;;;;;;;74.10;29.37;;;-1.90;99.90;;;;;;5248626;28;20673;-74
2021/01/14 04:22:59;;;;;;;66.70;29.60;;;-1.80;99.90;;;;;;5250630;28;20207;-72
2021/01/14 04:25:31;;;;;;;70.97;30.00;;;-1.80;99.90;;;;;;5250977;28;20198;-73
2021/01/14 04:28:04;;;;;;;67.83;29.27;;;-1.70;99.90;;;;;;5251000;28;20283;-76
2021/01/14 04:30:36;;;;;;;63.97;27.63;;;-1.70;99.90;;;;;;5248650;28;20211;-74
2021/01/14 04:33:11;;;;;;;63.20;26.77;;;-1.60;99.90;;;;;;5250691;28;20667;-72
2021/01/14 04:35:56;;;;;;;70.23;27.33;;;-1.50;99.90;;;;;;5248865;28;20195;-74
2021/01/14 04:38:28;;;;;;;60.77;29.20;;;-1.50;99.90;;;;;;5248497;28;20203;-71
2021/01/14 04:41:02;;;;;;;71.23;28.90;;;-1.40;99.90;;;;;;5248901;28;20549;-73
2021/01/14 04:43:34;;;;;;;74.90;33.03;;;-1.40;99.90;;;;;;5258248;28;20204;-75
2021/01/14 04:46:08;;;;;;;75.00;31.43;;;-1.40;99.90;;;;;;5248262;28;20209;-74
2021/01/14 04:48:45;;;;;;;70.97;31.30;;;-1.40;99.90;;;;;;5230448;28;20209;-70
2021/01/14 04:51:17;;;;;;;71.90;29.67;;;-1.40;99.90;;;;;;5248749;28;20227;-69
2021/01/14 04:53:50;;;;;;;65.60;29.93;;;-1.40;99.90;;;;;;5231640;28;20234;-74
2021/01/14 04:56:31;;;;;;;56.93;26.80;;;-1.40;99.90;;;;;;5248655;28;20201;-73
2021/01/14 04:59:04;;;;;;;57.70;25.83;;;-1.30;99.90;;;;;;5248355;28;20660;-74
2021/01/14 05:01:41;;;;;;;54.93;25.03;;;-1.30;99.90;;;;;;5249064;28;20196;-74
2021/01/14 05:04:20;;;;;;;52.27;22.83;;;-1.30;99.90;;;;;;5230913;28;20188;-73
2021/01/14 05:06:57;;;;;;;44.20;19.17;;;-1.40;99.90;;;;;;5248662;28;20549;-73
2021/01/14 05:09:38;;;;;;;41.33;19.10;;;-1.30;99.90;;;;;;5248369;28;20192;-76
2021/01/14 05:12:10;;;;;;;40.70;18.30;;;-1.20;99.90;;;;;;5248808;28;20226;-71
2021/01/14 05:14:43;;;;;;;40.23;17.80;;;-1.10;99.90;;;;;;5248661;28;20218;-75
2021/01/14 05:17:14;;;;;;;38.83;17.40;;;-1.10;99.90;;;;;;5248555;28;20194;-72
2021/01/14 05:19:46;;;;;;;35.13;16.60;;;-1.00;99.90;;;;;;5248721;28;20223;-72
2021/01/14 05:22:17;;;;;;;36.33;16.13;;;-0.90;99.90;;;;;;5230572;28;20199;-72
2021/01/14 05:25:09;;;;;;;37.17;15.47;;;-0.90;99.90;;;;;;5248934;28;20196;-74
2021/01/14 05:27:41;;;;;;;35.87;15.10;;;-0.90;99.90;;;;;;5248327;28;20612;-73
2021/01/14 05:30:13;;;;;;;31.17;13.60;;;-0.80;99.90;;;;;;5247467;28;20194;-72
2021/01/14 05:32:46;;;;;;;27.47;12.33;;;-0.80;99.90;;;;;;5247080;28;20222;-71
2021/01/14 05:39:13;;;;;;;33.07;14.80;;;-0.60;99.90;;;;;;5248198;28;20180;-73
2021/01/14 05:41:46;;;;;;;29.37;13.40;;;-0.50;99.90;;;;;;5248291;28;20222;-73
2021/01/14 05:44:18;;;;;;;31.40;13.57;;;-0.40;99.90;;;;;;5248524;28;20193;-75
2021/01/14 05:46:49;;;;;;;38.57;15.97;;;-0.30;99.90;;;;;;5230631;28;20199;-79
2021/01/14 05:49:20;;;;;;;30.77;14.17;;;-0.30;99.90;;;;;;5253790;28;20208;-79
2021/01/14 05:55:44;;;;;;;35.73;14.40;;;-0.30;99.90;;;;;;5250028;28;20243;-75
2021/01/14 05:58:18;;;;;;;33.93;15.30;;;-0.20;99.90;;;;;;5251826;28;20279;-77
2021/01/14 06:00:49;;;;;;;43.60;19.77;;;-0.30;99.90;;;;;;5255085;28;20196;-78
2021/01/14 06:03:28;;;;;;;50.30;21.63;;;-0.30;99.90;;;;;;5252442;28;20193;-76
2021/01/14 06:06:15;;;;;;;52.07;21.93;;;-0.30;99.90;;;;;;5251875;28;20200;-75
2021/01/14 06:08:47;;;;;;;45.00;21.37;;;-0.30;99.90;;;;;;5234841;28;20550;-76
2021/01/14 06:11:23;;;;;;;47.23;20.23;;;-0.30;99.90;;;;;;5251717;28;20574;-75
2021/01/14 06:13:56;;;;;;;46.87;21.53;;;-0.30;99.90;;;;;;5251311;28;20233;-74
2021/01/14 06:16:28;;;;;;;48.57;20.73;;;-0.30;99.90;;;;;;5251140;28;20555;-75
2021/01/14 06:19:07;;;;;;;42.00;19.50;;;-0.30;99.90;;;;;;5251882;28;20216;-77
2021/01/14 06:21:44;;;;;;;39.70;19.73;;;-0.30;99.90;;;;;;5251747;28;20208;-74
2021/01/14 06:24:27;;;;;;;40.07;19.43;;;-0.20;99.90;;;;;;5251510;28;20526;-75
2021/01/14 06:27:10;;;;;;;41.20;18.00;;;-0.20;99.90;;;;;;5250868;28;20202;-73
2021/01/14 06:29:43;;;;;;;38.10;17.70;;;-0.20;99.90;;;;;;5256100;28;20252;-73
2021/01/14 06:32:16;;;;;;;36.17;15.60;;;-0.20;99.90;;;;;;5253844;28;20294;-76
2021/01/14 06:34:50;;;;;;;30.47;13.83;;;-0.10;99.90;;;;;;5251151;28;20617;-77
2021/01/14 06:37:23;;;;;;;30.03;14.50;;;0.00;99.90;;;;;;5251982;28;20199;-76
2021/01/14 06:39:59;;;;;;;29.50;13.23;;;0.10;99.90;;;;;;5250709;28;20213;-77
2021/01/14 06:42:48;;;;;;;30.93;13.50;;;0.10;99.90;;;;;;5253148;28;20187;-75
2021/01/14 06:45:23;;;;;;;31.47;12.77;;;0.10;99.90;;;;;;5254201;28;20200;-74
2021/01/14 06:48:03;;;;;;;21.73;11.70;;;0.10;99.90;;;;;;5257440;28;20600;-74
2021/01/14 06:54:10;;;;;;;21.80;10.60;;;0.20;99.90;;;;;;5251539;28;20184;-74
2021/01/14 06:56:57;;;;;;;22.13;11.07;;;0.20;99.90;;;;;;5251284;28;20199;-75
2021/01/14 06:59:29;;;;;;;24.37;12.07;;;0.20;99.90;;;;;;5250975;28;20201;-74
2021/01/14 07:02:07;;;;;;;28.87;13.83;;;0.30;99.90;;;;;;5251090;28;20222;-74
2021/01/14 07:04:51;;;;;;;28.03;14.37;;;0.20;99.90;;;;;;5249988;28;20217;-75
2021/01/14 07:11:19;;;;;;;32.80;14.53;;;0.30;99.90;;;;;;5249618;28;20211;-75
2021/01/14 07:13:52;;;;;;;30.23;13.90;;;0.30;99.90;;;;;;5250984;28;20519;-74
2021/01/14 07:16:27;;;;;;;34.87;14.67;;;0.30;99.90;;;;;;5249904;28;20198;-73
2021/01/14 07:18:58;;;;;;;31.57;14.37;;;0.30;99.90;;;;;;5250156;28;20196;-74
2021/01/14 07:21:36;;;;;;;33.37;15.80;;;0.30;99.90;;;;;;5250330;28;20287;-75
2021/01/14 07:24:20;;;;;;;30.90;13.40;;;0.30;99.90;;;;;;5249747;28;20682;-74
2021/01/14 07:26:59;;;;;;;29.20;14.77;;;0.30;99.90;;;;;;5250405;28;20199;-74
2021/01/14 07:29:41;;;;;;;31.93;14.97;;;0.30;99.90;;;;;;5250179;28;20197;-76
2021/01/14 07:32:13;;;;;;;29.73;14.53;;;0.30;99.90;;;;;;5250003;28;20221;-73
2021/01/14 07:34:46;;;;;;;32.57;15.10;;;0.30;99.90;;;;;;5252982;28;20211;-74
2021/01/14 07:37:18;;;;;;;31.97;15.57;;;0.30;99.90;;;;;;5235781;28;20255;-75
2021/01/14 07:39:57;;;;;;;32.30;16.63;;;0.30;99.90;;;;;;5251229;28;20189;-75
2021/01/14 07:42:33;;;;;;;32.03;16.40;;;0.30;99.90;;;;;;5250540;28;20239;-76
2021/01/14 07:45:14;;;;;;;38.07;16.43;;;0.30;99.90;;;;;;5250196;28;20193;-75
2021/01/14 07:47:46;;;;;;;36.27;17.03;;;0.30;99.90;;;;;;5250238;28;20647;-76
2021/01/14 07:50:26;;;;;;;35.80;17.23;;;0.30;99.90;;;;;;5250630;28;20553;-75
2021/01/14 07:52:58;;;;;;;39.10;17.93;;;0.30;99.90;;;;;;5249858;28;20222;-74
2021/01/14 07:55:36;;;;;;;40.07;18.47;;;0.30;99.90;;;;;;5249684;28;20244;-74
2021/01/14 08:01:05;;;;;;;40.00;19.10;;;0.40;99.90;;;;;;5250501;28;20284;-73
2021/01/14 08:03:41;;;;;;;38.17;18.67;;;0.30;99.90;;;;;;5250463;28;20193;-77
2021/01/14 08:10:02;;;;;;;36.03;19.13;;;0.40;99.90;;;;;;5250740;28;20176;-75
2021/01/14 08:12:45;;;;;;;40.47;20.53;;;0.40;99.90;;;;;;5250323;28;20217;-76
2021/01/14 08:15:35;;;;;;;40.90;19.57;;;0.40;99.90;;;;;;5249734;28;20193;-76
2021/01/14 08:18:10;;;;;;;37.93;18.00;;;0.40;99.90;;;;;;5250437;28;20641;-73
2021/01/14 08:20:41;;;;;;;33.47;17.47;;;0.40;99.90;;;;;;5249490;28;20216;-74
2021/01/14 08:27:05;;;;;;;30.90;17.10;;;0.40;99.90;;;;;;5248971;28;20246;-76
2021/01/14 08:29:43;;;;;;;31.03;15.93;;;0.40;99.90;;;;;;5248548;28;20198;-77
2021/01/14 08:32:42;;;;;;;28.43;15.57;;;0.40;99.90;;;;;;5248813;28;20223;-74
2021/01/14 08:35:31;;;;;;;27.77;15.40;;;0.40;99.90;;;;;;5249054;28;20193;-74
2021/01/14 08:38:15;;;;;;;28.80;14.73;;;0.40;99.90;;;;;;5247882;28;20204;-75
2021/01/14 08:40:47;;;;;;;26.37;13.33;;;0.40;99.90;;;;;;5248706;28;20193;-75
2021/01/14 08:43:18;;;;;;;27.23;13.93;;;0.40;99.90;;;;;;5248743;28;20201;-75
2021/01/14 08:45:54;;;;;;;27.23;14.17;;;0.40;99.90;;;;;;5248676;28;20206;-75
2021/01/14 08:48:32;;;;;;;25.47;13.83;;;0.40;99.90;;;;;;5248819;28;20201;-76
2021/01/14 08:51:04;;;;;;;26.27;13.70;;;0.40;99.90;;;;;;5233596;28;20239;-73
2021/01/14 08:53:42;;;;;;;26.30;15.97;;;0.40;99.90;;;;;;5237710;28;20454;-73
2021/01/14 08:56:17;;;;;;;24.27;13.30;;;0.40;99.90;;;;;;5248879;28;20703;-75
2021/01/14 08:58:50;;;;;;;23.37;13.47;;;0.40;99.90;;;;;;5247915;28;20195;-71
2021/01/14 09:01:23;;;;;;;23.83;12.70;;;0.40;99.90;;;;;;5248248;28;20192;-74
2021/01/14 09:03:56;;;;;;;22.97;12.67;;;0.40;99.90;;;;;;5247370;28;20258;-71
2021/01/14 09:10:23;;;;;;;28.97;13.07;;;0.40;99.90;;;;;;5248218;28;20179;-73
2021/01/14 09:13:09;;;;;;;23.67;12.53;;;0.30;99.90;;;;;;5248182;28;20572;-72
2021/01/14 09:15:41;;;;;;;29.23;14.53;;;0.40;99.90;;;;;;5248100;28;20193;-76
2021/01/14 09:18:15;;;;;;;26.53;13.57;;;0.30;99.90;;;;;;5247390;28;20572;-73
2021/01/14 09:20:52;;;;;;;24.17;13.10;;;0.30;99.90;;;;;;5246092;28;20283;-75
2021/01/14 09:27:29;;;;;;;25.33;12.43;;;0.30;99.90;;;;;;5248275;28;20190;-76
2021/01/14 09:30:01;;;;;;;27.80;12.07;;;0.40;99.90;;;;;;5247135;28;20189;-73
2021/01/14 09:32:33;;;;;;;25.40;12.53;;;0.40;99.90;;;;;;5248476;28;20223;-73
2021/01/14 09:35:14;;;;;;;24.87;12.03;;;0.40;99.90;;;;;;5251843;28;20636;-72
2021/01/14 09:37:47;;;;;;;23.97;12.63;;;0.40;99.90;;;;;;5252779;28;20203;-73
2021/01/14 09:40:22;;;;;;;23.00;11.93;;;0.40;99.90;;;;;;5253267;28;20200;-74
2021/01/14 09:42:58;;;;;;;25.87;12.33;;;0.50;99.90;;;;;;5253283;28;20275;-75
2021/01/14 09:45:29;;;;;;;22.03;11.70;;;0.50;99.90;;;;;;5253119;28;20215;-71
2021/01/14 09:48:01;;;;;;;21.77;12.33;;;0.40;99.90;;;;;;5252559;28;20201;-73
2021/01/14 09:50:33;;;;;;;21.20;11.90;;;0.40;99.90;;;;;;5252095;28;20196;-74
2021/01/14 09:53:08;;;;;;;22.67;12.13;;;0.40;99.90;;;;;;5251316;28;20225;-74
2021/01/14 09:55:41;;;;;;;21.33;11.83;;;0.40;99.90;;;;;;5233582;28;20232;-73
2021/01/14 09:58:18;;;;;;;22.47;11.33;;;0.30;99.90;;;;;;5251287;28;20203;-75
2021/01/14 10:00:52;;;;;;;20.93;11.17;;;0.30;99.90;;;;;;5250315;28;20250;-73
2021/01/14 10:03:25;;;;;;;21.77;12.67;;;0.30;99.90;;;;;;5234120;28;20201;-75
2021/01/14 10:06:05;;;;;;;21.67;11.40;;;0.20;99.90;;;;;;5234926;28;20200;-72
2021/01/14 10:08:38;;;;;;;25.30;13.20;;;0.20;99.90;;;;;;5251344;28;20221;-73
2021/01/14 10:11:10;;;;;;;26.43;13.53;;;0.20;99.90;;;;;;5252200;28;20575;-73
2021/01/14 10:13:51;;;;;;;25.93;12.17;;;0.20;99.90;;;;;;5251718;28;20215;-71
2021/01/14 10:16:23;;;;;;;23.97;11.50;;;0.10;99.90;;;;;;5250952;28;20192;-73
2021/01/14 10:19:15;;;;;;;23.53;11.70;;;0.10;99.90;;;;;;5251355;28;20196;-74
2021/01/14 10:25:47;;;;;;;26.97;11.63;;;0.10;99.90;;;;;;5250547;28;20635;-73
2021/01/14 10:28:18;;;;;;;21.17;10.90;;;0.10;99.90;;;;;;5252433;28;20208;-73
2021/01/14 10:30:51;;;;;;;18.70;10.27;;;0.00;99.90;;;;;;5251028;28;20195;-72
2021/01/14 10:33:23;;;;;;;18.63;10.67;;;0.00;99.90;;;;;;5252392;28;20219;-74
2021/01/14 10:35:55;;;;;;;22.70;10.70;;;0.00;99.90;;;;;;5252033;28;20200;-72
2021/01/14 10:38:29;;;;;;;19.47;10.43;;;0.00;99.90;;;;;;5623579;22;20247;-73
2021/01/14 10:41:00;;;;;;;19.37;10.23;;;0.00;99.90;;;;;;5238687;28;20193;-75
2021/01/14 10:43:37;;;;;;;19.13;10.67;;;0.00;99.90;;;;;;5262307;28;20203;-70
2021/01/14 10:46:09;;;;;;;17.67;10.20;;;0.00;99.90;;;;;;5261683;28;20196;-71
2021/01/14 10:48:42;;;;;;;16.17;9.20;;;0.00;99.90;;;;;;5274026;28;20625;-73
2021/01/14 10:51:32;;;;;;;22.07;10.40;;;0.00;99.90;;;;;;5262504;28;20223;-70
2021/01/14 10:54:03;;;;;;;17.23;9.57;;;0.00;99.90;;;;;;5233121;28;20210;-70
2021/01/14 10:56:52;;;;;;;17.43;10.13;;;0.10;99.90;;;;;;5250842;28;20226;-72
2021/01/14 10:59:24;;;;;;;19.80;10.20;;;0.00;99.90;;;;;;5250548;28;20207;-77
2021/01/14 11:02:06;;;;;;;19.07;10.40;;;0.00;99.90;;;;;;5250952;28;20192;-75
2021/01/14 11:04:37;;;;;;;16.50;9.60;;;0.00;99.90;;;;;;5251249;28;20553;-72
2021/01/14 11:07:12;;;;;;;19.37;11.00;;;0.00;99.90;;;;;;5246893;28;20197;-76
2021/01/14 11:09:51;;;;;;;19.03;10.47;;;0.00;99.90;;;;;;5250017;28;20639;-76
2021/01/14 11:12:22;;;;;;;19.77;11.20;;;0.00;99.90;;;;;;5252299;28;20270;-75
2021/01/14 11:15:04;;;;;;;17.90;10.57;;;0.00;99.90;;;;;;5253203;28;20210;-75
2021/01/14 11:17:35;;;;;;;19.37;10.50;;;-0.10;99.90;;;;;;5238299;28;20200;-75
2021/01/14 11:20:09;;;;;;;18.97;10.53;;;-0.10;99.90;;;;;;5248189;28;20194;-77
2021/01/14 11:22:41;;;;;;;17.50;9.97;;;-0.10;99.90;;;;;;5249732;28;20639;-76
2021/01/14 11:25:13;;;;;;;18.27;10.20;;;-0.10;99.90;;;;;;5248957;28;20219;-76
2021/01/14 11:27:44;;;;;;;19.07;10.27;;;-0.10;99.90;;;;;;5231768;28;20893;-76
2021/01/14 11:30:16;;;;;;;19.47;10.43;;;-0.10;99.90;;;;;;5249064;28;20576;-75
2021/01/14 11:32:49;;;;;;;18.50;10.63;;;-0.20;99.90;;;;;;5249468;28;20697;-74
2021/01/14 11:35:21;;;;;;;21.27;10.47;;;-0.20;99.90;;;;;;5228099;28;21303;-72
2021/01/14 11:37:53;;;;;;;17.40;10.00;;;-0.10;99.90;;;;;;5255369;28;20213;-76
2021/01/14 11:40:24;;;;;;;24.57;10.60;;;-0.20;99.90;;;;;;5249869;28;20237;-74
2021/01/14 11:42:56;;;;;;;18.60;11.13;;;-0.20;99.90;;;;;;5250464;28;20196;-73
2021/01/14 11:45:27;;;;;;;17.33;10.27;;;-0.20;99.90;;;;;;5251820;28;20197;-74
2021/01/14 11:47:59;;;;;;;15.20;9.73;;;-0.20;99.90;;;;;;5251766;28;20212;-74
2021/01/14 11:50:30;;;;;;;15.93;9.03;;;-0.20;99.90;;;;;;5251127;28;20193;-77
2021/01/14 11:53:03;;;;;;;17.23;10.03;;;-0.30;99.90;;;;;;5251031;28;20200;-74
2021/01/14 11:55:34;;;;;;;17.50;9.80;;;-0.30;99.90;;;;;;5249261;28;20203;-70
2021/01/14 11:58:07;;;;;;;15.97;8.97;;;-0.30;99.90;;;;;;5252914;28;20192;-72
2021/01/14 12:00:38;;;;;;;17.13;9.57;;;-0.40;99.90;;;;;;5241998;28;20203;-74
2021/01/14 12:03:12;;;;;;;17.73;10.27;;;-0.40;99.90;;;;;;5233616;28;20237;-75
2021/01/14 12:05:44;;;;;;;15.63;8.93;;;-0.30;99.90;;;;;;5236473;28;20303;-72
2021/01/14 12:08:15;;;;;;;15.37;8.90;;;-0.30;99.90;;;;;;5250212;28;20193;-70
2021/01/14 12:10:47;;;;;;;15.80;8.43;;;-0.30;99.90;;;;;;5248891;28;20204;-69
2021/01/14 12:13:19;;;;;;;15.40;8.47;;;-0.30;99.90;;;;;;5248103;28;20690;-70
2021/01/14 12:15:50;;;;;;;12.17;7.87;;;-0.30;99.90;;;;;;5251973;28;20544;-76
2021/01/14 12:18:22;;;;;;;14.77;7.63;;;-0.30;99.90;;;;;;5248860;28;20201;-72
2021/01/14 12:20:53;;;;;;;14.83;7.90;;;-0.30;99.90;;;;;;5248755;28;20223;-71
2021/01/14 12:23:25;;;;;;;12.23;6.60;;;-0.30;99.90;;;;;;5247928;28;20725;-71
2021/01/14 12:25:56;;;;;;;14.10;7.67;;;-0.30;99.90;;;;;;5243517;28;20640;-70
2021/01/14 12:28:28;;;;;;;13.43;7.47;;;-0.30;99.90;;;;;;5240273;28;20205;-71
2021/01/14 12:30:59;;;;;;;11.30;7.03;;;-0.30;99.90;;;;;;5226301;28;20189;-73
2021/01/14 12:33:31;;;;;;;14.43;7.37;;;-0.30;99.90;;;;;;5246040;28;20208;-72
2021/01/14 12:36:03;;;;;;;14.67;7.80;;;-0.20;99.90;;;;;;5250690;28;20275;-78
2021/01/14 12:38:35;;;;;;;12.67;6.87;;;-0.20;99.90;;;;;;5246181;28;20229;-74
2021/01/14 12:41:06;;;;;;;12.50;6.67;;;-0.10;99.90;;;;;;5228589;28;20292;-74
2021/01/14 12:43:38;;;;;;;13.07;6.80;;;-0.10;99.90;;;;;;5247683;28;20289;-71
2021/01/14 12:46:10;;;;;;;13.23;6.43;;;0.00;99.90;;;;;;5248136;28;20189;-71
2021/01/14 12:48:41;;;;;;;10.87;5.97;;;0.10;99.90;;;;;;5241837;28;20196;-67
2021/01/14 12:51:20;;;;;;;9.77;6.23;;;0.10;99.90;;;;;;5242990;28;20198;-66
2021/01/14 12:53:52;;;;;;;11.87;6.90;;;0.10;99.90;;;;;;5242428;28;20212;-77
2021/01/14 12:56:24;;;;;;;9.67;5.27;;;0.10;99.90;;;;;;5246866;28;20256;-77
2021/01/14 12:59:23;;;;;;;8.93;5.90;;;0.10;99.90;;;;;;5243786;28;20246;-76
2021/01/14 13:02:12;;;;;;;12.27;6.30;;;0.10;99.90;;;;;;5209136;28;20722;-76
2021/01/14 13:04:43;;;;;;;11.87;6.00;;;0.10;99.90;;;;;;5219688;28;20278;-73
2021/01/14 13:07:15;;;;;;;9.47;5.37;;;0.10;99.90;;;;;;5223675;28;20309;-77
2021/01/14 13:09:46;;;;;;;8.43;5.40;;;0.10;99.90;;;;;;5222857;28;20213;-78
2021/01/14 13:12:18;;;;;;;9.67;5.83;;;0.10;99.90;;;;;;5229746;28;20228;-76
2021/01/14 13:14:49;;;;;;;9.60;5.90;;;0.00;99.90;;;;;;5230621;28;20195;-74
2021/01/14 13:17:21;;;;;;;8.87;5.63;;;0.00;99.90;;;;;;5230679;28;20232;-74
2021/01/14 13:19:53;;;;;;;9.60;5.73;;;0.00;99.90;;;;;;5228422;28;20316;-76
2021/01/14 13:22:24;;;;;;;8.77;5.43;;;-0.10;99.90;;;;;;5228346;28;20276;-77
2021/01/14 13:24:56;;;;;;;10.47;6.03;;;-0.10;99.90;;;;;;5230196;28;20209;-76
2021/01/14 13:27:27;;;;;;;9.00;5.30;;;-0.10;99.90;;;;;;5228140;28;20217;-76
2021/01/14 13:29:58;;;;;;;12.43;5.90;;;-0.10;99.90;;;;;;5228040;28;20208;-75
2021/01/14 13:32:30;;;;;;;13.87;6.27;;;-0.20;99.90;;;;;;5226528;28;20612;-75
2021/01/14 13:35:02;;;;;;;16.07;6.00;;;-0.20;99.90;;;;;;5225291;28;20200;-76
2021/01/14 13:37:34;;;;;;;10.90;5.97;;;-0.30;99.90;;;;;;5224828;28;20189;-79
2021/01/14 13:40:06;;;;;;;13.47;6.63;;;-0.30;99.90;;;;;;5247262;28;20248;-74
2021/01/14 13:42:37;;;;;;;8.83;5.50;;;-0.30;99.90;;;;;;5249621;28;20212;-72
2021/01/14 13:45:09;;;;;;;8.87;5.53;;;-0.30;99.90;;;;;;5249088;28;20192;-74
2021/01/14 13:47:41;;;;;;;11.47;5.67;;;-0.30;99.90;;;;;;5250956;28;20207;-75
2021/01/14 13:50:12;;;;;;;13.60;5.90;;;-0.40;99.90;;;;;;5252555;28;20216;-78
2021/01/14 13:52:44;;;;;;;10.83;6.10;;;-0.40;99.90;;;;;;5251079;28;20678;-77
2021/01/14 13:55:15;;;;;;;11.13;6.23;;;-0.40;99.90;;;;;;5249790;28;20208;-76
2021/01/14 13:57:47;;;;;;;10.60;5.60;;;-0.40;99.90;;;;;;5250707;28;20200;-76